sensor_id;sensor_type;location;lat;lon;timestamp;P1;durP1;ratioP1;P2;durP2;ratioP2
3066;SDS011;1544;48.834;9.194;2022-08-21T00:01:21;2.10;;;1.90;;
3066;SDS011;1544;48.834;9.194;2022-08-21T00:04:04;3.03;;;2.83;;
3066;SDS011;1544;48.834;9.194;2022-08-21T00:06:40;5.53;;;5.13;;
3066;SDS011;1544;48.834;9.194;2022-08-21T00:09:15;5.83;;;5.03;;
3066;SDS011;1544;48.834;9.194;2022-08-21T00:11:51;3.70;;;3.40;;
3066;SDS011;1544;48.834;9.194;2022-08-21T00:14:26;2.93;;;2.70;;
3066;SDS011;1544;48.834;9.194;2022-08-21T00:17:05;2.17;;;1.97;;
3066;SDS011;1544;48.834;9.194;2022-08-21T00:19:41;1.83;;;1.73;;
3066;SDS011;1544;48.834;9.194;2022-08-21T00:22:16;1.67;;;1.57;;
3066;SDS011;1544;48.834;9.194;2022-08-21T00:24:51;1.67;;;1.57;;
3066;SDS011;1544;48.834;9.194;2022-08-21T00:27:26;2.23;;;1.80;;
3066;SDS011;1544;48.834;9.194;2022-08-21T00:30:02;2.47;;;1.80;;
3066;SDS011;1544;48.834;9.194;2022-08-21T00:32:40;2.63;;;1.90;;
3066;SDS011;1544;48.834;9.194;2022-08-21T00:35:17;4.43;;;1.90;;
3066;SDS011;1544;48.834;9.194;2022-08-21T00:37:54;2.03;;;1.93;;
3066;SDS011;1544;48.834;9.194;2022-08-21T00:40:35;2.23;;;1.60;;
3066;SDS011;1544;48.834;9.194;2022-08-21T00:43:21;1.57;;;1.47;;
3066;SDS011;1544;48.834;9.194;2022-08-21T00:46:00;1.80;;;1.50;;
3066;SDS011;1544;48.834;9.194;2022-08-21T00:48:35;2.63;;;1.90;;
3066;SDS011;1544;48.834;9.194;2022-08-21T00:51:15;2.23;;;1.60;;
3066;SDS011;1544;48.834;9.194;2022-08-21T00:53:57;1.70;;;1.60;;
3066;SDS011;1544;48.834;9.194;2022-08-21T00:56:36;3.80;;;1.90;;
3066;SDS011;1544;48.834;9.194;2022-08-21T00:59:11;1.57;;;1.47;;
3066;SDS011;1544;48.834;9.194;2022-08-21T01:01:47;2.30;;;1.60;;
3066;SDS011;1544;48.834;9.194;2022-08-21T01:04:23;2.47;;;1.97;;
3066;SDS011;1544;48.834;9.194;2022-08-21T01:06:58;2.40;;;1.90;;
3066;SDS011;1544;48.834;9.194;2022-08-21T01:09:47;1.80;;;1.70;;
3066;SDS011;1544;48.834;9.194;2022-08-21T01:12:22;2.07;;;1.90;;
3066;SDS011;1544;48.834;9.194;2022-08-21T01:14:58;2.60;;;1.80;;
3066;SDS011;1544;48.834;9.194;2022-08-21T01:17:36;3.23;;;1.80;;
3066;SDS011;1544;48.834;9.194;2022-08-21T01:20:11;2.90;;;1.80;;
3066;SDS011;1544;48.834;9.194;2022-08-21T01:22:47;2.13;;;1.90;;
3066;SDS011;1544;48.834;9.194;2022-08-21T01:25:22;2.23;;;1.60;;
3066;SDS011;1544;48.834;9.194;2022-08-21T01:27:57;5.67;;;2.13;;
3066;SDS011;1544;48.834;9.194;2022-08-21T01:30:39;1.70;;;1.60;;
3066;SDS011;1544;48.834;9.194;2022-08-21T01:33:18;1.80;;;1.70;;
3066;SDS011;1544;48.834;9.194;2022-08-21T01:35:56;1.77;;;1.67;;
3066;SDS011;1544;48.834;9.194;2022-08-21T01:38:31;3.17;;;2.43;;
3066;SDS011;1544;48.834;9.194;2022-08-21T01:41:06;3.10;;;2.00;;
3066;SDS011;1544;48.834;9.194;2022-08-21T01:43:42;2.33;;;2.13;;
3066;SDS011;1544;48.834;9.194;2022-08-21T01:46:18;1.83;;;1.73;;
3066;SDS011;1544;48.834;9.194;2022-08-21T01:48:53;3.00;;;2.30;;
3066;SDS011;1544;48.834;9.194;2022-08-21T01:51:28;2.10;;;1.90;;
3066;SDS011;1544;48.834;9.194;2022-08-21T01:54:03;2.30;;;2.10;;
3066;SDS011;1544;48.834;9.194;2022-08-21T01:56:42;2.00;;;1.90;;
3066;SDS011;1544;48.834;9.194;2022-08-21T01:59:21;3.73;;;2.20;;
3066;SDS011;1544;48.834;9.194;2022-08-21T02:01:57;4.03;;;2.30;;
3066;SDS011;1544;48.834;9.194;2022-08-21T02:04:32;2.37;;;2.27;;
3066;SDS011;1544;48.834;9.194;2022-08-21T02:07:07;2.13;;;1.90;;
3066;SDS011;1544;48.834;9.194;2022-08-21T02:09:43;2.30;;;2.20;;
3066;SDS011;1544;48.834;9.194;2022-08-21T02:12:19;2.30;;;2.20;;
3066;SDS011;1544;48.834;9.194;2022-08-21T02:14:54;2.90;;;2.00;;
3066;SDS011;1544;48.834;9.194;2022-08-21T02:17:39;2.57;;;2.07;;
3066;SDS011;1544;48.834;9.194;2022-08-21T02:20:28;2.70;;;2.50;;
3066;SDS011;1544;48.834;9.194;2022-08-21T02:23:10;2.63;;;2.37;;
3066;SDS011;1544;48.834;9.194;2022-08-21T02:25:46;2.80;;;2.60;;
3066;SDS011;1544;48.834;9.194;2022-08-21T02:28:21;3.17;;;2.50;;
3066;SDS011;1544;48.834;9.194;2022-08-21T02:30:56;2.90;;;2.20;;
3066;SDS011;1544;48.834;9.194;2022-08-21T02:33:32;2.27;;;2.10;;
3066;SDS011;1544;48.834;9.194;2022-08-21T02:36:08;2.37;;;2.17;;
3066;SDS011;1544;48.834;9.194;2022-08-21T02:38:44;3.03;;;2.30;;
3066;SDS011;1544;48.834;9.194;2022-08-21T02:41:20;2.70;;;2.50;;
3066;SDS011;1544;48.834;9.194;2022-08-21T02:43:56;3.33;;;2.73;;
3066;SDS011;1544;48.834;9.194;2022-08-21T02:46:31;2.90;;;2.43;;
3066;SDS011;1544;48.834;9.194;2022-08-21T02:49:06;2.67;;;2.20;;
3066;SDS011;1544;48.834;9.194;2022-08-21T02:51:41;2.53;;;2.33;;
3066;SDS011;1544;48.834;9.194;2022-08-21T02:54:16;2.93;;;2.67;;
3066;SDS011;1544;48.834;9.194;2022-08-21T02:56:51;3.33;;;3.07;;
3066;SDS011;1544;48.834;9.194;2022-08-21T02:59:26;2.90;;;2.60;;
3066;SDS011;1544;48.834;9.194;2022-08-21T03:02:01;2.50;;;2.30;;
3066;SDS011;1544;48.834;9.194;2022-08-21T03:04:36;2.60;;;2.40;;
3066;SDS011;1544;48.834;9.194;2022-08-21T03:07:11;3.10;;;2.70;;
3066;SDS011;1544;48.834;9.194;2022-08-21T03:09:46;3.57;;;2.17;;
3066;SDS011;1544;48.834;9.194;2022-08-21T03:12:29;3.73;;;2.67;;
3066;SDS011;1544;48.834;9.194;2022-08-21T03:15:05;2.77;;;2.53;;
3066;SDS011;1544;48.834;9.194;2022-08-21T03:17:44;2.30;;;2.20;;
3066;SDS011;1544;48.834;9.194;2022-08-21T03:20:22;2.70;;;2.57;;
3066;SDS011;1544;48.834;9.194;2022-08-21T03:23:00;3.07;;;2.83;;
3066;SDS011;1544;48.834;9.194;2022-08-21T03:25:46;5.00;;;2.70;;
3066;SDS011;1544;48.834;9.194;2022-08-21T03:28:22;3.10;;;2.90;;
3066;SDS011;1544;48.834;9.194;2022-08-21T03:30:58;2.83;;;2.63;;
3066;SDS011;1544;48.834;9.194;2022-08-21T03:33:33;2.83;;;2.63;;
3066;SDS011;1544;48.834;9.194;2022-08-21T03:36:08;3.97;;;3.03;;
3066;SDS011;1544;48.834;9.194;2022-08-21T03:38:44;2.50;;;2.40;;
3066;SDS011;1544;48.834;9.194;2022-08-21T03:41:19;3.27;;;2.80;;
3066;SDS011;1544;48.834;9.194;2022-08-21T03:43:55;2.83;;;2.63;;
3066;SDS011;1544;48.834;9.194;2022-08-21T03:46:30;3.73;;;3.50;;
3066;SDS011;1544;48.834;9.194;2022-08-21T03:49:06;3.00;;;2.80;;
3066;SDS011;1544;48.834;9.194;2022-08-21T03:51:41;3.20;;;2.90;;
3066;SDS011;1544;48.834;9.194;2022-08-21T03:54:17;2.83;;;2.63;;
3066;SDS011;1544;48.834;9.194;2022-08-21T03:56:52;3.80;;;3.53;;
3066;SDS011;1544;48.834;9.194;2022-08-21T03:59:27;3.30;;;3.10;;
3066;SDS011;1544;48.834;9.194;2022-08-21T04:02:03;4.60;;;3.57;;
3066;SDS011;1544;48.834;9.194;2022-08-21T04:04:40;2.93;;;2.77;;
3066;SDS011;1544;48.834;9.194;2022-08-21T04:07:15;4.33;;;3.93;;
3066;SDS011;1544;48.834;9.194;2022-08-21T04:09:51;2.97;;;2.73;;
3066;SDS011;1544;48.834;9.194;2022-08-21T04:12:26;3.43;;;3.17;;
3066;SDS011;1544;48.834;9.194;2022-08-21T04:15:01;3.27;;;2.97;;
3066;SDS011;1544;48.834;9.194;2022-08-21T04:17:37;3.40;;;3.20;;
3066;SDS011;1544;48.834;9.194;2022-08-21T04:20:12;3.00;;;2.80;;
3066;SDS011;1544;48.834;9.194;2022-08-21T04:22:47;3.33;;;3.13;;
3066;SDS011;1544;48.834;9.194;2022-08-21T04:25:25;4.57;;;3.67;;
3066;SDS011;1544;48.834;9.194;2022-08-21T04:28:00;3.47;;;3.17;;
3066;SDS011;1544;48.834;9.194;2022-08-21T04:30:36;3.30;;;3.03;;
3066;SDS011;1544;48.834;9.194;2022-08-21T04:33:11;2.73;;;2.53;;
3066;SDS011;1544;48.834;9.194;2022-08-21T04:35:47;2.93;;;2.53;;
3066;SDS011;1544;48.834;9.194;2022-08-21T04:38:23;5.63;;;2.67;;
3066;SDS011;1544;48.834;9.194;2022-08-21T04:40:58;3.33;;;3.13;;
3066;SDS011;1544;48.834;9.194;2022-08-21T04:43:34;4.13;;;3.77;;
3066;SDS011;1544;48.834;9.194;2022-08-21T04:46:09;3.33;;;3.13;;
3066;SDS011;1544;48.834;9.194;2022-08-21T04:48:47;3.77;;;3.20;;
3066;SDS011;1544;48.834;9.194;2022-08-21T04:51:27;3.83;;;3.53;;
3066;SDS011;1544;48.834;9.194;2022-08-21T04:54:09;3.77;;;3.57;;
3066;SDS011;1544;48.834;9.194;2022-08-21T04:56:51;3.30;;;3.10;;
3066;SDS011;1544;48.834;9.194;2022-08-21T04:59:43;3.07;;;2.97;;
3066;SDS011;1544;48.834;9.194;2022-08-21T05:02:23;3.43;;;3.23;;
3066;SDS011;1544;48.834;9.194;2022-08-21T05:04:58;3.07;;;2.87;;
3066;SDS011;1544;48.834;9.194;2022-08-21T05:07:34;3.50;;;3.30;;
3066;SDS011;1544;48.834;9.194;2022-08-21T05:10:16;4.17;;;3.87;;
3066;SDS011;1544;48.834;9.194;2022-08-21T05:12:51;3.30;;;3.10;;
3066;SDS011;1544;48.834;9.194;2022-08-21T05:15:27;3.47;;;3.17;;
3066;SDS011;1544;48.834;9.194;2022-08-21T05:18:02;3.83;;;3.53;;
3066;SDS011;1544;48.834;9.194;2022-08-21T05:20:37;3.30;;;3.10;;
3066;SDS011;1544;48.834;9.194;2022-08-21T05:23:13;3.50;;;3.20;;
3066;SDS011;1544;48.834;9.194;2022-08-21T05:25:48;3.43;;;3.23;;
3066;SDS011;1544;48.834;9.194;2022-08-21T05:28:24;4.87;;;3.10;;
3066;SDS011;1544;48.834;9.194;2022-08-21T05:31:00;4.17;;;3.00;;
3066;SDS011;1544;48.834;9.194;2022-08-21T05:33:35;2.80;;;2.60;;
3066;SDS011;1544;48.834;9.194;2022-08-21T05:36:13;2.77;;;2.57;;
3066;SDS011;1544;48.834;9.194;2022-08-21T05:38:48;4.00;;;3.37;;
3066;SDS011;1544;48.834;9.194;2022-08-21T05:41:24;3.17;;;2.87;;
3066;SDS011;1544;48.834;9.194;2022-08-21T05:43:59;3.37;;;3.17;;
3066;SDS011;1544;48.834;9.194;2022-08-21T05:46:34;3.63;;;3.37;;
3066;SDS011;1544;48.834;9.194;2022-08-21T05:49:09;2.90;;;2.80;;
3066;SDS011;1544;48.834;9.194;2022-08-21T05:51:45;3.40;;;3.20;;
3066;SDS011;1544;48.834;9.194;2022-08-21T05:54:21;3.67;;;2.37;;
3066;SDS011;1544;48.834;9.194;2022-08-21T05:56:56;2.93;;;2.63;;
3066;SDS011;1544;48.834;9.194;2022-08-21T05:59:31;3.03;;;2.80;;
3066;SDS011;1544;48.834;9.194;2022-08-21T06:02:06;3.77;;;3.17;;
3066;SDS011;1544;48.834;9.194;2022-08-21T06:04:42;2.30;;;2.20;;
3066;SDS011;1544;48.834;9.194;2022-08-21T06:07:17;2.43;;;2.33;;
3066;SDS011;1544;48.834;9.194;2022-08-21T06:09:52;3.10;;;2.80;;
3066;SDS011;1544;48.834;9.194;2022-08-21T06:12:27;2.23;;;2.03;;
3066;SDS011;1544;48.834;9.194;2022-08-21T06:15:02;2.87;;;2.67;;
3066;SDS011;1544;48.834;9.194;2022-08-21T06:17:38;2.80;;;2.60;;
3066;SDS011;1544;48.834;9.194;2022-08-21T06:20:13;2.73;;;2.53;;
3066;SDS011;1544;48.834;9.194;2022-08-21T06:22:48;2.73;;;2.53;;
3066;SDS011;1544;48.834;9.194;2022-08-21T06:25:23;3.10;;;2.90;;
3066;SDS011;1544;48.834;9.194;2022-08-21T06:28:06;3.20;;;2.90;;
3066;SDS011;1544;48.834;9.194;2022-08-21T06:30:42;2.70;;;2.60;;
3066;SDS011;1544;48.834;9.194;2022-08-21T06:33:18;3.40;;;3.10;;
3066;SDS011;1544;48.834;9.194;2022-08-21T06:35:53;3.20;;;3.00;;
3066;SDS011;1544;48.834;9.194;2022-08-21T06:38:28;2.97;;;2.73;;
3066;SDS011;1544;48.834;9.194;2022-08-21T06:41:05;2.10;;;2.00;;
3066;SDS011;1544;48.834;9.194;2022-08-21T06:43:43;3.13;;;2.93;;
3066;SDS011;1544;48.834;9.194;2022-08-21T06:46:18;2.40;;;2.30;;
3066;SDS011;1544;48.834;9.194;2022-08-21T06:48:54;2.57;;;2.37;;
3066;SDS011;1544;48.834;9.194;2022-08-21T06:51:30;2.83;;;2.63;;
3066;SDS011;1544;48.834;9.194;2022-08-21T06:54:05;2.87;;;2.67;;
3066;SDS011;1544;48.834;9.194;2022-08-21T06:56:41;3.83;;;2.67;;
3066;SDS011;1544;48.834;9.194;2022-08-21T06:59:16;2.63;;;2.53;;
3066;SDS011;1544;48.834;9.194;2022-08-21T07:01:51;2.77;;;2.57;;
3066;SDS011;1544;48.834;9.194;2022-08-21T07:04:26;2.50;;;2.30;;
3066;SDS011;1544;48.834;9.194;2022-08-21T07:07:01;2.27;;;2.17;;
3066;SDS011;1544;48.834;9.194;2022-08-21T07:09:36;4.13;;;2.33;;
3066;SDS011;1544;48.834;9.194;2022-08-21T07:12:11;2.23;;;2.13;;
3066;SDS011;1544;48.834;9.194;2022-08-21T07:14:47;3.57;;;2.90;;
3066;SDS011;1544;48.834;9.194;2022-08-21T07:17:23;3.60;;;2.97;;
3066;SDS011;1544;48.834;9.194;2022-08-21T07:19:58;3.10;;;2.57;;
3066;SDS011;1544;48.834;9.194;2022-08-21T07:22:33;2.30;;;2.10;;
3066;SDS011;1544;48.834;9.194;2022-08-21T07:25:10;2.70;;;2.50;;
3066;SDS011;1544;48.834;9.194;2022-08-21T07:27:45;4.60;;;3.03;;
3066;SDS011;1544;48.834;9.194;2022-08-21T07:30:21;3.40;;;3.20;;
3066;SDS011;1544;48.834;9.194;2022-08-21T07:32:57;3.23;;;2.93;;
3066;SDS011;1544;48.834;9.194;2022-08-21T07:35:32;3.93;;;3.27;;
3066;SDS011;1544;48.834;9.194;2022-08-21T07:38:08;3.67;;;3.37;;
3066;SDS011;1544;48.834;9.194;2022-08-21T07:40:43;5.27;;;3.77;;
3066;SDS011;1544;48.834;9.194;2022-08-21T07:43:19;4.80;;;3.17;;
3066;SDS011;1544;48.834;9.194;2022-08-21T07:45:55;4.20;;;3.10;;
3066;SDS011;1544;48.834;9.194;2022-08-21T07:48:31;3.27;;;2.50;;
3066;SDS011;1544;48.834;9.194;2022-08-21T07:51:07;3.47;;;2.50;;
3066;SDS011;1544;48.834;9.194;2022-08-21T07:53:50;3.37;;;3.10;;
3066;SDS011;1544;48.834;9.194;2022-08-21T07:56:28;3.60;;;3.30;;
3066;SDS011;1544;48.834;9.194;2022-08-21T07:59:05;3.23;;;2.93;;
3066;SDS011;1544;48.834;9.194;2022-08-21T08:01:40;2.43;;;2.27;;
3066;SDS011;1544;48.834;9.194;2022-08-21T08:04:17;3.90;;;2.73;;
3066;SDS011;1544;48.834;9.194;2022-08-21T08:06:57;3.33;;;3.07;;
3066;SDS011;1544;48.834;9.194;2022-08-21T08:09:32;3.07;;;2.87;;
3066;SDS011;1544;48.834;9.194;2022-08-21T08:12:08;3.50;;;3.10;;
3066;SDS011;1544;48.834;9.194;2022-08-21T08:14:43;4.50;;;3.00;;
3066;SDS011;1544;48.834;9.194;2022-08-21T08:17:18;3.97;;;3.17;;
3066;SDS011;1544;48.834;9.194;2022-08-21T08:19:56;5.90;;;3.53;;
3066;SDS011;1544;48.834;9.194;2022-08-21T08:22:31;6.33;;;4.33;;
3066;SDS011;1544;48.834;9.194;2022-08-21T08:25:11;4.30;;;3.90;;
3066;SDS011;1544;48.834;9.194;2022-08-21T08:27:48;3.27;;;3.07;;
3066;SDS011;1544;48.834;9.194;2022-08-21T08:30:24;4.27;;;3.27;;
3066;SDS011;1544;48.834;9.194;2022-08-21T08:33:04;3.00;;;2.80;;
3066;SDS011;1544;48.834;9.194;2022-08-21T08:35:40;3.67;;;2.90;;
3066;SDS011;1544;48.834;9.194;2022-08-21T08:38:20;3.23;;;2.93;;
3066;SDS011;1544;48.834;9.194;2022-08-21T08:43:50;3.50;;;3.17;;
3066;SDS011;1544;48.834;9.194;2022-08-21T08:46:40;3.90;;;3.60;;
3066;SDS011;1544;48.834;9.194;2022-08-21T08:52:20;4.53;;;3.23;;
3066;SDS011;1544;48.834;9.194;2022-08-21T08:57:50;3.20;;;2.87;;
3066;SDS011;1544;48.834;9.194;2022-08-21T09:00:28;3.93;;;3.07;;
3066;SDS011;1544;48.834;9.194;2022-08-21T09:03:03;3.73;;;3.00;;
3066;SDS011;1544;48.834;9.194;2022-08-21T09:05:46;5.27;;;3.20;;
3066;SDS011;1544;48.834;9.194;2022-08-21T09:08:50;3.60;;;3.30;;
3066;SDS011;1544;48.834;9.194;2022-08-21T09:11:47;2.57;;;2.37;;
3066;SDS011;1544;48.834;9.194;2022-08-21T09:27:04;3.20;;;2.90;;
3066;SDS011;1544;48.834;9.194;2022-08-21T09:29:47;5.37;;;3.10;;
3066;SDS011;1544;48.834;9.194;2022-08-21T09:32:29;3.30;;;2.97;;
3066;SDS011;1544;48.834;9.194;2022-08-21T09:35:19;5.73;;;3.43;;
3066;SDS011;1544;48.834;9.194;2022-08-21T09:38:04;2.97;;;2.63;;
3066;SDS011;1544;48.834;9.194;2022-08-21T09:40:43;3.37;;;3.07;;
3066;SDS011;1544;48.834;9.194;2022-08-21T09:43:22;4.33;;;2.60;;
3066;SDS011;1544;48.834;9.194;2022-08-21T09:46:19;3.77;;;2.70;;
3066;SDS011;1544;48.834;9.194;2022-08-21T09:48:58;3.60;;;2.80;;
3066;SDS011;1544;48.834;9.194;2022-08-21T09:51:36;5.70;;;3.00;;
3066;SDS011;1544;48.834;9.194;2022-08-21T09:54:14;3.67;;;2.80;;
3066;SDS011;1544;48.834;9.194;2022-08-21T09:57:27;4.50;;;3.50;;
3066;SDS011;1544;48.834;9.194;2022-08-21T10:00:29;5.10;;;3.90;;
3066;SDS011;1544;48.834;9.194;2022-08-21T10:03:08;4.00;;;3.27;;
3066;SDS011;1544;48.834;9.194;2022-08-21T10:05:59;3.87;;;3.13;;
3066;SDS011;1544;48.834;9.194;2022-08-21T10:08:42;2.70;;;2.40;;
3066;SDS011;1544;48.834;9.194;2022-08-21T10:11:17;3.93;;;2.67;;
3066;SDS011;1544;48.834;9.194;2022-08-21T10:16:59;4.40;;;3.10;;
3066;SDS011;1544;48.834;9.194;2022-08-21T10:25:21;3.70;;;2.80;;
3066;SDS011;1544;48.834;9.194;2022-08-21T10:28:11;3.30;;;2.30;;
3066;SDS011;1544;48.834;9.194;2022-08-21T10:31:03;2.90;;;2.50;;
3066;SDS011;1544;48.834;9.194;2022-08-21T10:34:10;5.97;;;3.40;;
3066;SDS011;1544;48.834;9.194;2022-08-21T10:38:07;2.63;;;2.43;;
3066;SDS011;1544;48.834;9.194;2022-08-21T10:56:25;2.60;;;2.40;;
3066;SDS011;1544;48.834;9.194;2022-08-21T11:05:15;3.43;;;2.40;;
3066;SDS011;1544;48.834;9.194;2022-08-21T11:08:15;3.03;;;2.73;;
3066;SDS011;1544;48.834;9.194;2022-08-21T11:11:04;4.90;;;3.17;;
3066;SDS011;1544;48.834;9.194;2022-08-21T11:13:55;5.27;;;2.67;;
3066;SDS011;1544;48.834;9.194;2022-08-21T11:16:37;4.13;;;2.80;;
3066;SDS011;1544;48.834;9.194;2022-08-21T11:19:31;4.10;;;2.60;;
3066;SDS011;1544;48.834;9.194;2022-08-21T11:25:06;2.37;;;2.17;;
3066;SDS011;1544;48.834;9.194;2022-08-21T11:27:56;3.30;;;3.00;;
3066;SDS011;1544;48.834;9.194;2022-08-21T11:30:52;2.80;;;2.53;;
3066;SDS011;1544;48.834;9.194;2022-08-21T11:36:36;4.70;;;2.50;;
3066;SDS011;1544;48.834;9.194;2022-08-21T11:39:39;4.53;;;3.30;;
3066;SDS011;1544;48.834;9.194;2022-08-21T11:42:40;6.60;;;2.87;;
3066;SDS011;1544;48.834;9.194;2022-08-21T11:45:39;3.80;;;2.27;;
3066;SDS011;1544;48.834;9.194;2022-08-21T11:48:43;3.80;;;2.70;;
3066;SDS011;1544;48.834;9.194;2022-08-21T11:51:44;5.43;;;2.70;;
3066;SDS011;1544;48.834;9.194;2022-08-21T12:01:08;2.50;;;2.30;;
3066;SDS011;1544;48.834;9.194;2022-08-21T12:03:53;3.00;;;2.03;;
3066;SDS011;1544;48.834;9.194;2022-08-21T12:06:36;3.80;;;2.40;;
3066;SDS011;1544;48.834;9.194;2022-08-21T12:18:21;2.43;;;2.23;;
3066;SDS011;1544;48.834;9.194;2022-08-21T12:26:56;2.60;;;2.20;;
3066;SDS011;1544;48.834;9.194;2022-08-21T12:30:05;2.10;;;2.00;;
3066;SDS011;1544;48.834;9.194;2022-08-21T12:33:02;3.07;;;1.97;;
3066;SDS011;1544;48.834;9.194;2022-08-21T12:36:06;4.10;;;1.87;;
3066;SDS011;1544;48.834;9.194;2022-08-21T12:38:52;2.83;;;1.83;;
3066;SDS011;1544;48.834;9.194;2022-08-21T12:41:33;2.53;;;2.33;;
3066;SDS011;1544;48.834;9.194;2022-08-21T12:44:21;2.80;;;1.90;;
3066;SDS011;1544;48.834;9.194;2022-08-21T12:47:17;2.83;;;2.10;;
3066;SDS011;1544;48.834;9.194;2022-08-21T12:50:13;2.70;;;1.93;;
3066;SDS011;1544;48.834;9.194;2022-08-21T12:56:08;2.27;;;1.90;;
3066;SDS011;1544;48.834;9.194;2022-08-21T12:58:51;2.73;;;2.27;;
3066;SDS011;1544;48.834;9.194;2022-08-21T13:01:31;2.40;;;2.10;;
3066;SDS011;1544;48.834;9.194;2022-08-21T13:07:31;3.73;;;2.07;;
3066;SDS011;1544;48.834;9.194;2022-08-21T13:10:14;2.43;;;2.23;;
3066;SDS011;1544;48.834;9.194;2022-08-21T13:12:57;2.47;;;2.17;;
3066;SDS011;1544;48.834;9.194;2022-08-21T13:15:46;2.97;;;1.77;;
3066;SDS011;1544;48.834;9.194;2022-08-21T13:18:23;2.60;;;2.10;;
3066;SDS011;1544;48.834;9.194;2022-08-21T13:21:13;1.67;;;1.57;;
3066;SDS011;1544;48.834;9.194;2022-08-21T13:23:49;2.37;;;1.80;;
3066;SDS011;1544;48.834;9.194;2022-08-21T13:26:24;2.10;;;1.90;;
3066;SDS011;1544;48.834;9.194;2022-08-21T13:29:05;2.57;;;1.97;;
3066;SDS011;1544;48.834;9.194;2022-08-21T13:31:54;2.37;;;2.17;;
3066;SDS011;1544;48.834;9.194;2022-08-21T13:34:33;2.60;;;2.00;;
3066;SDS011;1544;48.834;9.194;2022-08-21T13:37:11;2.37;;;2.20;;
3066;SDS011;1544;48.834;9.194;2022-08-21T13:39:50;2.00;;;1.90;;
3066;SDS011;1544;48.834;9.194;2022-08-21T13:42:26;2.23;;;2.07;;
3066;SDS011;1544;48.834;9.194;2022-08-21T13:45:02;2.00;;;1.90;;
3066;SDS011;1544;48.834;9.194;2022-08-21T13:47:37;2.80;;;2.00;;
3066;SDS011;1544;48.834;9.194;2022-08-21T13:50:13;2.47;;;2.30;;
3066;SDS011;1544;48.834;9.194;2022-08-21T13:52:59;2.87;;;1.77;;
3066;SDS011;1544;48.834;9.194;2022-08-21T13:55:40;2.10;;;2.00;;
3066;SDS011;1544;48.834;9.194;2022-08-21T14:01:27;2.50;;;1.93;;
3066;SDS011;1544;48.834;9.194;2022-08-21T14:06:52;3.43;;;2.43;;
3066;SDS011;1544;48.834;9.194;2022-08-21T14:09:33;2.07;;;1.97;;
3066;SDS011;1544;48.834;9.194;2022-08-21T14:12:19;2.17;;;2.00;;
3066;SDS011;1544;48.834;9.194;2022-08-21T14:15:04;2.47;;;1.60;;
3066;SDS011;1544;48.834;9.194;2022-08-21T14:17:41;1.70;;;1.60;;
3066;SDS011;1544;48.834;9.194;2022-08-21T14:20:27;2.10;;;1.90;;
3066;SDS011;1544;48.834;9.194;2022-08-21T14:23:06;2.10;;;1.90;;
3066;SDS011;1544;48.834;9.194;2022-08-21T14:25:43;3.13;;;2.87;;
3066;SDS011;1544;48.834;9.194;2022-08-21T14:28:27;1.70;;;1.60;;
3066;SDS011;1544;48.834;9.194;2022-08-21T14:31:16;3.30;;;2.07;;
3066;SDS011;1544;48.834;9.194;2022-08-21T14:33:55;3.17;;;2.03;;
3066;SDS011;1544;48.834;9.194;2022-08-21T14:36:31;3.47;;;1.73;;
3066;SDS011;1544;48.834;9.194;2022-08-21T14:39:06;1.80;;;1.70;;
3066;SDS011;1544;48.834;9.194;2022-08-21T14:41:43;2.03;;;1.93;;
3066;SDS011;1544;48.834;9.194;2022-08-21T14:44:22;2.90;;;1.67;;
3066;SDS011;1544;48.834;9.194;2022-08-21T14:46:58;2.10;;;1.90;;
3066;SDS011;1544;48.834;9.194;2022-08-21T14:49:33;2.07;;;1.97;;
3066;SDS011;1544;48.834;9.194;2022-08-21T14:52:08;1.67;;;1.50;;
3066;SDS011;1544;48.834;9.194;2022-08-21T14:54:43;1.97;;;1.87;;
3066;SDS011;1544;48.834;9.194;2022-08-21T14:57:18;1.80;;;1.70;;
3066;SDS011;1544;48.834;9.194;2022-08-21T14:59:53;1.93;;;1.60;;
3066;SDS011;1544;48.834;9.194;2022-08-21T15:02:34;1.87;;;1.77;;
3066;SDS011;1544;48.834;9.194;2022-08-21T15:05:10;3.30;;;1.90;;
3066;SDS011;1544;48.834;9.194;2022-08-21T15:07:47;2.43;;;1.90;;
3066;SDS011;1544;48.834;9.194;2022-08-21T15:10:22;2.30;;;1.97;;
3066;SDS011;1544;48.834;9.194;2022-08-21T15:12:58;2.90;;;1.80;;
3066;SDS011;1544;48.834;9.194;2022-08-21T15:15:36;2.43;;;2.00;;
3066;SDS011;1544;48.834;9.194;2022-08-21T15:18:16;1.93;;;1.83;;
3066;SDS011;1544;48.834;9.194;2022-08-21T15:20:51;2.40;;;1.70;;
3066;SDS011;1544;48.834;9.194;2022-08-21T15:23:26;1.87;;;1.77;;
3066;SDS011;1544;48.834;9.194;2022-08-21T15:26:02;1.40;;;1.30;;
3066;SDS011;1544;48.834;9.194;2022-08-21T15:28:37;1.90;;;1.60;;
3066;SDS011;1544;48.834;9.194;2022-08-21T15:31:13;2.23;;;1.77;;
3066;SDS011;1544;48.834;9.194;2022-08-21T15:33:49;2.10;;;2.00;;
3066;SDS011;1544;48.834;9.194;2022-08-21T15:36:24;2.10;;;1.90;;
3066;SDS011;1544;48.834;9.194;2022-08-21T15:38:59;1.83;;;1.73;;
3066;SDS011;1544;48.834;9.194;2022-08-21T15:41:34;2.30;;;2.00;;
3066;SDS011;1544;48.834;9.194;2022-08-21T15:44:09;2.73;;;2.07;;
3066;SDS011;1544;48.834;9.194;2022-08-21T15:46:46;3.10;;;1.80;;
3066;SDS011;1544;48.834;9.194;2022-08-21T15:49:21;1.73;;;1.63;;
3066;SDS011;1544;48.834;9.194;2022-08-21T15:51:58;1.70;;;1.60;;
3066;SDS011;1544;48.834;9.194;2022-08-21T15:54:33;1.80;;;1.70;;
3066;SDS011;1544;48.834;9.194;2022-08-21T15:57:12;1.80;;;1.70;;
3066;SDS011;1544;48.834;9.194;2022-08-21T15:59:53;2.00;;;1.67;;
3066;SDS011;1544;48.834;9.194;2022-08-21T16:02:32;1.70;;;1.60;;
3066;SDS011;1544;48.834;9.194;2022-08-21T16:05:09;2.00;;;1.90;;
3066;SDS011;1544;48.834;9.194;2022-08-21T16:07:46;2.23;;;1.77;;
3066;SDS011;1544;48.834;9.194;2022-08-21T16:10:23;2.10;;;1.60;;
3066;SDS011;1544;48.834;9.194;2022-08-21T16:13:04;2.17;;;1.73;;
3066;SDS011;1544;48.834;9.194;2022-08-21T16:15:49;1.93;;;1.83;;
3066;SDS011;1544;48.834;9.194;2022-08-21T16:18:25;1.90;;;1.80;;
3066;SDS011;1544;48.834;9.194;2022-08-21T16:21:01;1.73;;;1.63;;
3066;SDS011;1544;48.834;9.194;2022-08-21T16:23:36;1.70;;;1.60;;
3066;SDS011;1544;48.834;9.194;2022-08-21T16:26:12;2.00;;;1.90;;
3066;SDS011;1544;48.834;9.194;2022-08-21T16:28:52;1.80;;;1.70;;
3066;SDS011;1544;48.834;9.194;2022-08-21T16:31:32;1.77;;;1.53;;
3066;SDS011;1544;48.834;9.194;2022-08-21T16:34:07;2.17;;;1.77;;
3066;SDS011;1544;48.834;9.194;2022-08-21T16:36:50;2.30;;;2.10;;
3066;SDS011;1544;48.834;9.194;2022-08-21T16:39:25;2.20;;;2.00;;
3066;SDS011;1544;48.834;9.194;2022-08-21T16:42:00;1.97;;;1.80;;
3066;SDS011;1544;48.834;9.194;2022-08-21T16:44:36;1.90;;;1.80;;
3066;SDS011;1544;48.834;9.194;2022-08-21T16:47:11;1.73;;;1.63;;
3066;SDS011;1544;48.834;9.194;2022-08-21T16:50:00;1.70;;;1.60;;
3066;SDS011;1544;48.834;9.194;2022-08-21T16:52:35;1.63;;;1.53;;
3066;SDS011;1544;48.834;9.194;2022-08-21T16:55:10;3.50;;;2.00;;
3066;SDS011;1544;48.834;9.194;2022-08-21T16:57:46;1.73;;;1.63;;
3066;SDS011;1544;48.834;9.194;2022-08-21T17:00:21;1.80;;;1.70;;
3066;SDS011;1544;48.834;9.194;2022-08-21T17:02:57;1.70;;;1.60;;
3066;SDS011;1544;48.834;9.194;2022-08-21T17:05:32;1.97;;;1.87;;
3066;SDS011;1544;48.834;9.194;2022-08-21T17:08:07;1.47;;;1.37;;
3066;SDS011;1544;48.834;9.194;2022-08-21T17:10:44;2.73;;;1.50;;
3066;SDS011;1544;48.834;9.194;2022-08-21T17:13:21;2.33;;;2.03;;
3066;SDS011;1544;48.834;9.194;2022-08-21T17:15:57;1.80;;;1.70;;
3066;SDS011;1544;48.834;9.194;2022-08-21T17:18:32;3.77;;;3.43;;
3066;SDS011;1544;48.834;9.194;2022-08-21T17:21:07;2.67;;;2.53;;
3066;SDS011;1544;48.834;9.194;2022-08-21T17:23:42;5.20;;;4.90;;
3066;SDS011;1544;48.834;9.194;2022-08-21T17:26:17;3.70;;;3.40;;
3066;SDS011;1544;48.834;9.194;2022-08-21T17:28:53;2.50;;;2.20;;
3066;SDS011;1544;48.834;9.194;2022-08-21T17:31:28;2.30;;;2.10;;
3066;SDS011;1544;48.834;9.194;2022-08-21T17:34:05;2.20;;;2.10;;
3066;SDS011;1544;48.834;9.194;2022-08-21T17:36:40;2.33;;;2.13;;
3066;SDS011;1544;48.834;9.194;2022-08-21T17:39:16;3.07;;;1.70;;
3066;SDS011;1544;48.834;9.194;2022-08-21T17:42:01;2.30;;;1.90;;
3066;SDS011;1544;48.834;9.194;2022-08-21T17:44:43;2.67;;;2.43;;
3066;SDS011;1544;48.834;9.194;2022-08-21T17:47:19;2.60;;;2.40;;
3066;SDS011;1544;48.834;9.194;2022-08-21T17:49:54;2.13;;;2.03;;
3066;SDS011;1544;48.834;9.194;2022-08-21T17:52:29;3.00;;;2.03;;
3066;SDS011;1544;48.834;9.194;2022-08-21T17:55:05;2.13;;;1.93;;
3066;SDS011;1544;48.834;9.194;2022-08-21T17:57:41;2.03;;;1.83;;
3066;SDS011;1544;48.834;9.194;2022-08-21T18:00:18;2.80;;;2.30;;